Time;durP1;ratioP1;P1;durP2;ratioP2;P2;SDS_P1;SDS_P2;PMS_P1;PMS_P2;Temp;Humidity;BMP_temperature;BMP_pressure;BME280_temperature;BME280_humidity;BME280_pressure;Samples;Min_cycle;Max_cycle;Signal;HPM_P1;HPM_P2
2021/01/06 00:01:29;;;;;;;;;;;19.20;37.50;;;;;;491677;241;2129;-54
2021/01/06 00:03:30;;;;;;;;;;;19.10;37.50;;;;;;491615;240;1023;-53
2021/01/06 00:05:31;;;;;;;;;;;19.10;37.60;;;;;;491939;240;1060;-54
2021/01/06 00:07:32;;;;;;;;;;;19.10;37.60;;;;;;491730;240;1329;-54
2021/01/06 00:09:34;;;;;;;;;;;19.10;37.60;;;;;;491655;240;2181;-54
2021/01/06 00:11:35;;;;;;;;;;;19.10;37.60;;;;;;491618;240;1163;-54
2021/01/06 00:13:36;;;;;;;;;;;19.10;37.60;;;;;;491724;240;1087;-53
2021/01/06 00:15:37;;;;;;;;;;;19.00;37.60;;;;;;491670;240;1199;-54
2021/01/06 00:17:39;;;;;;;;;;;19.00;37.70;;;;;;491590;240;1343;-54
2021/01/06 00:19:40;;;;;;;;;;;19.00;37.70;;;;;;491700;240;1041;-54
2021/01/06 00:21:41;;;;;;;;;;;19.00;37.80;;;;;;491529;240;1170;-54
2021/01/06 00:23:42;;;;;;;;;;;19.00;37.80;;;;;;491704;240;1184;-54
2021/01/06 00:25:44;;;;;;;;;;;19.00;37.80;;;;;;491538;240;1206;-54
2021/01/06 00:27:45;;;;;;;;;;;18.90;37.80;;;;;;491971;240;1088;-54
2021/01/06 00:29:46;;;;;;;;;;;18.90;37.80;;;;;;491697;240;2188;-54
2021/01/06 00:31:48;;;;;;;;;;;18.90;37.80;;;;;;491595;240;1185;-54
2021/01/06 00:33:49;;;;;;;;;;;18.90;37.80;;;;;;491834;240;975;-54
2021/01/06 00:35:50;;;;;;;;;;;18.90;37.80;;;;;;491659;240;1209;-53
2021/01/06 00:37:51;;;;;;;;;;;18.90;37.90;;;;;;491947;240;1181;-54
2021/01/06 00:39:53;;;;;;;;;;;18.90;37.90;;;;;;491832;240;1265;-54
2021/01/06 00:41:54;;;;;;;;;;;18.80;37.90;;;;;;491793;240;1233;-54
2021/01/06 00:43:55;;;;;;;;;;;18.80;37.90;;;;;;491661;240;1005;-54
2021/01/06 00:45:56;;;;;;;;;;;18.80;37.90;;;;;;491583;240;1198;-54
2021/01/06 00:47:58;;;;;;;;;;;18.80;38.00;;;;;;491655;240;1075;-54
2021/01/06 00:49:59;;;;;;;;;;;18.80;38.00;;;;;;491706;240;2121;-54
2021/01/06 00:52:01;;;;;;;;;;;18.80;37.90;;;;;;491684;240;1199;-54
2021/01/06 00:54:02;;;;;;;;;;;18.80;38.00;;;;;;491687;240;1005;-53
2021/01/06 00:56:03;;;;;;;;;;;18.80;38.00;;;;;;491621;240;1108;-54
2021/01/06 00:58:05;;;;;;;;;;;18.70;38.00;;;;;;491654;240;1051;-54
2021/01/06 01:00:06;;;;;;;;;;;18.70;36.70;;;;;;491670;240;1045;-54
2021/01/06 01:02:07;;;;;;;;;;;18.70;38.00;;;;;;491758;240;1060;-54
2021/01/06 01:04:08;;;;;;;;;;;18.80;38.00;;;;;;491653;240;1042;-54
2021/01/06 01:06:10;;;;;;;;;;;18.70;38.00;;;;;;491634;240;1051;-54
2021/01/06 01:08:11;;;;;;;;;;;18.70;38.10;;;;;;491718;240;1304;-54
2021/01/06 01:10:12;;;;;;;;;;;18.60;38.10;;;;;;491743;240;2114;-54
2021/01/06 01:12:14;;;;;;;;;;;18.60;36.70;;;;;;491690;240;1049;-54
2021/01/06 01:14:15;;;;;;;;;;;18.70;38.10;;;;;;491780;240;1106;-54
2021/01/06 01:16:16;;;;;;;;;;;18.70;38.10;;;;;;491907;240;1060;-54
2021/01/06 01:18:18;;;;;;;;;;;18.60;36.70;;;;;;491655;240;1126;-54
2021/01/06 01:20:19;;;;;;;;;;;18.60;38.10;;;;;;491657;240;1029;-54
2021/01/06 01:22:20;;;;;;;;;;;18.60;38.10;;;;;;491736;240;1204;-54
2021/01/06 01:24:21;;;;;;;;;;;18.60;38.10;;;;;;491801;240;1248;-54
2021/01/06 01:26:23;;;;;;;;;;;18.60;38.10;;;;;;491771;240;1171;-53
2021/01/06 01:28:24;;;;;;;;;;;18.60;38.10;;;;;;491724;240;992;-53
2021/01/06 01:30:25;;;;;;;;;;;18.60;38.10;;;;;;491626;240;2195;-54
2021/01/06 01:32:27;;;;;;;;;;;18.60;38.10;;;;;;491623;240;1117;-54
2021/01/06 01:34:28;;;;;;;;;;;18.60;38.10;;;;;;491752;240;1165;-54
2021/01/06 01:36:29;;;;;;;;;;;18.60;38.20;;;;;;491643;240;1288;-54
2021/01/06 01:38:30;;;;;;;;;;;18.50;38.10;;;;;;491615;240;1035;-53
2021/01/06 01:40:32;;;;;;;;;;;18.60;38.20;;;;;;491582;240;1147;-54
2021/01/06 01:42:33;;;;;;;;;;;18.50;38.10;;;;;;491538;240;1200;-54
2021/01/06 01:44:34;;;;;;;;;;;18.50;38.10;;;;;;491798;240;1095;-54
2021/01/06 01:46:35;;;;;;;;;;;18.50;38.20;;;;;;491533;240;1505;-54
2021/01/06 01:48:37;;;;;;;;;;;18.50;38.20;;;;;;491726;240;2140;-54
2021/01/06 01:50:38;;;;;;;;;;;18.50;38.20;;;;;;491612;240;1209;-54
2021/01/06 01:52:39;;;;;;;;;;;18.50;38.20;;;;;;491693;240;1132;-53
2021/01/06 01:54:44;;;;;;;;;;;18.50;38.20;;;;;;492005;240;1067;-54
2021/01/06 01:56:45;;;;;;;;;;;18.50;38.20;;;;;;491619;240;1274;-54
2021/01/06 01:58:46;;;;;;;;;;;18.50;38.20;;;;;;491620;240;992;-54
2021/01/06 02:00:47;;;;;;;;;;;18.40;36.90;;;;;;491587;240;1063;-54
2021/01/06 02:02:49;;;;;;;;;;;18.50;38.20;;;;;;491689;240;1224;-54
2021/01/06 02:04:50;;;;;;;;;;;18.50;38.20;;;;;;491776;240;997;-54
2021/01/06 02:06:51;;;;;;;;;;;18.40;38.20;;;;;;491665;240;991;-54
2021/01/06 02:08:52;;;;;;;;;;;18.40;38.20;;;;;;491672;240;2196;-54
2021/01/06 02:10:54;;;;;;;;;;;18.40;38.20;;;;;;491770;240;1163;-54
2021/01/06 02:12:55;;;;;;;;;;;18.50;38.20;;;;;;491791;240;1042;-54
2021/01/06 02:14:56;;;;;;;;;;;18.40;38.20;;;;;;491891;240;1186;-54
2021/01/06 02:16:59;;;;;;;;;;;18.40;38.20;;;;;;491695;240;1209;-54
2021/01/06 02:18:59;;;;;;;;;;;18.40;38.20;;;;;;491567;240;2461;-54
2021/01/06 02:21:00;;;;;;;;;;;18.40;38.20;;;;;;491669;240;1156;-54
2021/01/06 02:23:02;;;;;;;;;;;18.40;38.20;;;;;;491655;240;1160;-54
2021/01/06 02:25:03;;;;;;;;;;;18.40;38.20;;;;;;491923;240;1229;-54
2021/01/06 02:27:05;;;;;;;;;;;18.40;38.20;;;;;;491624;240;1136;-54
2021/01/06 02:29:06;;;;;;;;;;;18.40;38.20;;;;;;491799;240;2140;-54
2021/01/06 02:31:07;;;;;;;;;;;18.40;38.20;;;;;;491771;240;1218;-54
2021/01/06 02:33:08;;;;;;;;;;;18.40;38.20;;;;;;491619;240;1066;-54
2021/01/06 02:35:10;;;;;;;;;;;18.40;38.20;;;;;;491703;240;1258;-54
2021/01/06 02:37:11;;;;;;;;;;;18.40;38.30;;;;;;491634;240;1258;-54
2021/01/06 02:39:13;;;;;;;;;;;18.40;38.30;;;;;;491836;240;1357;-54
2021/01/06 02:41:14;;;;;;;;;;;18.30;38.20;;;;;;491635;240;1235;-54
2021/01/06 02:43:15;;;;;;;;;;;18.30;38.20;;;;;;491681;240;1195;-54
2021/01/06 02:45:16;;;;;;;;;;;18.30;38.20;;;;;;491600;240;1306;-53
2021/01/06 02:47:18;;;;;;;;;;;18.40;38.20;;;;;;491572;240;1201;-54
2021/01/06 02:49:19;;;;;;;;;;;18.40;38.10;;;;;;491693;240;2141;-54
2021/01/06 02:51:20;;;;;;;;;;;18.40;38.10;;;;;;491600;240;1269;-54
2021/01/06 02:53:22;;;;;;;;;;;18.40;38.00;;;;;;491654;240;1156;-54
2021/01/06 02:55:23;;;;;;;;;;;18.40;38.00;;;;;;491654;240;1318;-54
2021/01/06 02:57:24;;;;;;;;;;;18.40;38.00;;;;;;491701;240;1179;-54
2021/01/06 02:59:26;;;;;;;;;;;18.40;37.90;;;;;;491662;240;964;-53
2021/01/06 03:01:27;;;;;;;;;;;18.50;38.00;;;;;;491829;240;1079;-54
2021/01/06 03:03:28;;;;;;;;;;;18.50;37.90;;;;;;491648;240;1173;-54
2021/01/06 03:05:29;;;;;;;;;;;18.50;37.90;;;;;;491763;240;1049;-54
2021/01/06 03:07:31;;;;;;;;;;;18.50;37.80;;;;;;491691;240;1135;-54
2021/01/06 03:09:32;;;;;;;;;;;18.60;37.80;;;;;;491641;240;2156;-54
2021/01/06 03:11:33;;;;;;;;;;;18.60;37.80;;;;;;491631;240;1225;-54
2021/01/06 03:13:35;;;;;;;;;;;18.60;37.80;;;;;;491724;240;1174;-54
2021/01/06 03:15:36;;;;;;;;;;;18.60;37.70;;;;;;491753;240;1240;-54
2021/01/06 03:17:37;;;;;;;;;;;18.60;37.70;;;;;;491553;241;1545;-53
2021/01/06 03:19:38;;;;;;;;;;;18.70;37.70;;;;;;491834;240;1029;-54
2021/01/06 03:21:40;;;;;;;;;;;18.70;37.70;;;;;;491611;240;1220;-54
2021/01/06 03:23:41;;;;;;;;;;;18.70;37.70;;;;;;491817;240;1294;-54
2021/01/06 03:25:42;;;;;;;;;;;18.70;37.60;;;;;;491589;240;1316;-54
2021/01/06 03:27:43;;;;;;;;;;;18.70;37.60;;;;;;491778;240;1080;-54
2021/01/06 03:29:45;;;;;;;;;;;18.70;37.60;;;;;;491618;240;2188;-54
2021/01/06 03:31:46;;;;;;;;;;;18.70;37.60;;;;;;491587;240;1173;-53
2021/01/06 03:33:47;;;;;;;;;;;18.70;37.50;;;;;;491841;240;1066;-54
2021/01/06 03:35:49;;;;;;;;;;;18.80;37.50;;;;;;491822;240;1190;-55
2021/01/06 03:37:50;;;;;;;;;;;18.80;37.50;;;;;;491641;240;1092;-54
2021/01/06 03:39:51;;;;;;;;;;;18.80;37.50;;;;;;491625;240;1254;-54
2021/01/06 03:41:52;;;;;;;;;;;18.80;37.50;;;;;;491629;238;1280;-54
2021/01/06 03:43:54;;;;;;;;;;;18.80;37.40;;;;;;491656;240;988;-54
2021/01/06 03:45:55;;;;;;;;;;;18.80;37.40;;;;;;491576;240;1206;-54
2021/01/06 03:47:56;;;;;;;;;;;18.80;37.40;;;;;;491628;240;1354;-54
2021/01/06 03:49:57;;;;;;;;;;;18.90;37.40;;;;;;491878;240;2120;-53
2021/01/06 03:51:59;;;;;;;;;;;18.90;37.40;;;;;;491569;240;1302;-54
2021/01/06 03:54:00;;;;;;;;;;;18.90;37.30;;;;;;491608;240;1055;-54
2021/01/06 03:56:01;;;;;;;;;;;18.90;37.30;;;;;;491735;240;1042;-54
2021/01/06 03:58:03;;;;;;;;;;;18.90;37.30;;;;;;491697;240;1257;-54
2021/01/06 04:00:04;;;;;;;;;;;18.90;37.30;;;;;;491639;240;1285;-54
2021/01/06 04:02:05;;;;;;;;;;;18.90;37.30;;;;;;491778;240;1213;-54
2021/01/06 04:04:06;;;;;;;;;;;18.90;37.30;;;;;;491966;240;1185;-54
2021/01/06 04:06:08;;;;;;;;;;;19.00;37.40;;;;;;491959;240;1260;-53
2021/01/06 04:08:09;;;;;;;;;;;19.00;37.40;;;;;;491974;240;1267;-54
2021/01/06 04:10:10;;;;;;;;;;;19.00;37.30;;;;;;491771;240;2176;-54
2021/01/06 04:12:12;;;;;;;;;;;19.00;37.30;;;;;;491552;240;1313;-54
2021/01/06 04:14:13;;;;;;;;;;;19.00;37.20;;;;;;491610;240;1314;-54
2021/01/06 04:16:14;;;;;;;;;;;19.00;37.20;;;;;;491757;240;1166;-53
2021/01/06 04:18:15;;;;;;;;;;;19.00;37.20;;;;;;491571;240;1131;-54
2021/01/06 04:20:17;;;;;;;;;;;19.00;37.20;;;;;;491634;240;981;-54
2021/01/06 04:22:18;;;;;;;;;;;19.10;37.20;;;;;;491663;240;1518;-54
2021/01/06 04:24:19;;;;;;;;;;;19.10;37.20;;;;;;491728;240;1100;-54
2021/01/06 04:26:21;;;;;;;;;;;19.10;37.20;;;;;;491725;240;1094;-53
2021/01/06 04:28:22;;;;;;;;;;;19.10;37.20;;;;;;491662;240;1224;-54
2021/01/06 04:30:23;;;;;;;;;;;19.10;37.20;;;;;;491764;240;2233;-54
2021/01/06 04:32:24;;;;;;;;;;;19.10;37.10;;;;;;491621;240;1627;-54
2021/01/06 04:34:26;;;;;;;;;;;19.10;37.10;;;;;;491643;240;1048;-53
2021/01/06 04:36:27;;;;;;;;;;;19.10;37.10;;;;;;491782;240;979;-54
2021/01/06 04:38:28;;;;;;;;;;;19.10;37.10;;;;;;491680;240;1138;-53
2021/01/06 04:40:29;;;;;;;;;;;19.10;37.10;;;;;;491638;240;980;-54
2021/01/06 04:42:31;;;;;;;;;;;19.10;37.00;;;;;;491622;240;1353;-54
2021/01/06 04:44:32;;;;;;;;;;;19.20;37.10;;;;;;491953;240;984;-54
2021/01/06 04:46:33;;;;;;;;;;;19.20;37.10;;;;;;491652;240;1219;-54
2021/01/06 04:48:35;;;;;;;;;;;19.20;37.00;;;;;;491686;240;1145;-54
2021/01/06 04:50:36;;;;;;;;;;;19.20;37.10;;;;;;491664;240;2188;-54
2021/01/06 04:52:37;;;;;;;;;;;19.20;37.00;;;;;;491664;240;1199;-54
2021/01/06 04:54:38;;;;;;;;;;;19.20;37.00;;;;;;491805;240;1053;-54
2021/01/06 04:56:40;;;;;;;;;;;19.20;37.00;;;;;;491607;240;1355;-54
2021/01/06 04:58:41;;;;;;;;;;;19.20;37.00;;;;;;491769;240;1120;-54
2021/01/06 05:00:43;;;;;;;;;;;19.30;37.00;;;;;;491624;240;1128;-54
2021/01/06 05:02:43;;;;;;;;;;;19.20;36.90;;;;;;491699;240;1219;-54
2021/01/06 05:04:45;;;;;;;;;;;19.30;37.00;;;;;;491675;240;1043;-54
2021/01/06 05:06:47;;;;;;;;;;;19.30;37.00;;;;;;491803;240;1404;-54
2021/01/06 05:08:47;;;;;;;;;;;19.30;37.00;;;;;;491647;240;1220;-54
2021/01/06 05:10:49;;;;;;;;;;;19.30;37.00;;;;;;491683;240;2137;-54
2021/01/06 05:12:50;;;;;;;;;;;19.30;37.00;;;;;;491752;240;1111;-54
2021/01/06 05:14:51;;;;;;;;;;;19.30;36.90;;;;;;491769;240;1020;-54
2021/01/06 05:16:53;;;;;;;;;;;19.30;36.90;;;;;;491645;240;1089;-54
2021/01/06 05:18:54;;;;;;;;;;;19.30;36.90;;;;;;491901;240;1012;-55
2021/01/06 05:20:55;;;;;;;;;;;19.30;36.90;;;;;;491615;240;1036;-54
2021/01/06 05:22:56;;;;;;;;;;;19.30;36.90;;;;;;491641;240;1066;-54
2021/01/06 05:24:58;;;;;;;;;;;19.30;36.90;;;;;;491661;240;1090;-54
2021/01/06 05:26:59;;;;;;;;;;;19.30;36.90;;;;;;491955;240;1055;-54
2021/01/06 05:29:00;;;;;;;;;;;19.30;36.80;;;;;;491718;240;1264;-54
2021/01/06 05:31:02;;;;;;;;;;;19.40;36.90;;;;;;491859;240;2137;-54
2021/01/06 05:33:03;;;;;;;;;;;19.40;36.90;;;;;;491652;240;989;-54
2021/01/06 05:35:05;;;;;;;;;;;19.40;36.90;;;;;;491645;240;1079;-54
2021/01/06 05:37:06;;;;;;;;;;;19.40;36.90;;;;;;491709;240;986;-54
2021/01/06 05:39:07;;;;;;;;;;;19.40;36.80;;;;;;491733;240;1045;-54
2021/01/06 05:41:08;;;;;;;;;;;19.40;36.90;;;;;;491668;240;1007;-54
2021/01/06 05:43:10;;;;;;;;;;;19.40;36.90;;;;;;491749;240;1184;-54
2021/01/06 05:45:11;;;;;;;;;;;19.40;36.80;;;;;;491667;240;959;-54
2021/01/06 05:47:12;;;;;;;;;;;19.40;36.80;;;;;;491662;240;981;-54
2021/01/06 05:49:13;;;;;;;;;;;19.40;36.80;;;;;;491690;240;1077;-54
2021/01/06 05:51:15;;;;;;;;;;;19.40;36.80;;;;;;491738;240;2145;-54
2021/01/06 05:53:16;;;;;;;;;;;19.40;36.80;;;;;;491715;240;1017;-54
2021/01/06 05:55:17;;;;;;;;;;;19.40;36.80;;;;;;491642;240;1310;-54
2021/01/06 05:57:20;;;;;;;;;;;19.50;36.80;;;;;;491585;240;1319;-54
2021/01/06 05:59:20;;;;;;;;;;;19.40;36.70;;;;;;491756;241;1446;-53
2021/01/06 06:01:21;;;;;;;;;;;19.40;36.80;;;;;;491528;240;1605;-54
2021/01/06 06:03:22;;;;;;;;;;;19.40;36.80;;;;;;491655;240;976;-54
2021/01/06 06:05:24;;;;;;;;;;;19.40;36.80;;;;;;491774;240;1313;-54
2021/01/06 06:07:25;;;;;;;;;;;19.50;36.80;;;;;;491620;240;1171;-54
2021/01/06 06:09:26;;;;;;;;;;;19.50;36.80;;;;;;491783;240;1017;-54
2021/01/06 06:11:27;;;;;;;;;;;19.50;36.80;;;;;;491715;240;2133;-54
2021/01/06 06:13:29;;;;;;;;;;;19.50;36.80;;;;;;491660;240;1049;-54
2021/01/06 06:15:30;;;;;;;;;;;19.50;36.80;;;;;;491738;240;1536;-54
2021/01/06 06:17:31;;;;;;;;;;;19.50;36.70;;;;;;491640;240;1074;-54
2021/01/06 06:19:34;;;;;;;;;;;19.50;36.80;;;;;;491672;240;932;-54
2021/01/06 06:21:35;;;;;;;;;;;19.50;36.70;;;;;;491648;240;1170;-53
2021/01/06 06:23:36;;;;;;;;;;;19.50;36.70;;;;;;491715;240;1214;-54
2021/01/06 06:25:37;;;;;;;;;;;19.50;36.70;;;;;;491700;240;1385;-54
2021/01/06 06:27:39;;;;;;;;;;;19.50;36.70;;;;;;491704;240;1034;-54
2021/01/06 06:29:40;;;;;;;;;;;19.50;36.70;;;;;;491657;240;1117;-54
2021/01/06 06:31:41;;;;;;;;;;;19.50;36.70;;;;;;491583;240;2184;-54
2021/01/06 06:33:42;;;;;;;;;;;19.60;36.80;;;;;;491631;240;1070;-54
2021/01/06 06:35:44;;;;;;;;;;;19.60;36.70;;;;;;491779;240;1057;-54
2021/01/06 06:37:45;;;;;;;;;;;19.50;36.70;;;;;;491615;240;1054;-54
2021/01/06 06:39:47;;;;;;;;;;;19.60;36.80;;;;;;491626;240;1089;-53
2021/01/06 06:41:48;;;;;;;;;;;19.60;36.70;;;;;;491593;240;1452;-54
2021/01/06 06:43:49;;;;;;;;;;;19.60;36.70;;;;;;491731;240;1100;-54
2021/01/06 06:45:51;;;;;;;;;;;19.60;36.70;;;;;;491761;240;972;-54
2021/01/06 06:47:52;;;;;;;;;;;19.60;36.70;;;;;;491593;240;1912;-54
2021/01/06 06:49:53;;;;;;;;;;;19.60;36.70;;;;;;491789;240;1233;-54
2021/01/06 06:51:54;;;;;;;;;;;19.60;36.70;;;;;;491462;240;2205;-54
2021/01/06 06:53:56;;;;;;;;;;;19.60;36.70;;;;;;491739;240;1079;-53
2021/01/06 06:55:57;;;;;;;;;;;19.60;35.40;;;;;;491567;240;1112;-54
2021/01/06 06:57:58;;;;;;;;;;;19.60;36.70;;;;;;491580;240;1075;-54
2021/01/06 06:59:59;;;;;;;;;;;19.60;36.70;;;;;;491681;240;1282;-54
2021/01/06 07:02:01;;;;;;;;;;;19.60;36.60;;;;;;491549;240;1165;-53
2021/01/06 07:04:02;;;;;;;;;;;19.60;36.60;;;;;;491798;240;1316;-54
2021/01/06 07:06:03;;;;;;;;;;;19.60;36.70;;;;;;491790;240;1174;-54
2021/01/06 07:08:04;;;;;;;;;;;19.60;36.60;;;;;;491677;240;1218;-54
2021/01/06 07:10:06;;;;;;;;;;;19.60;36.60;;;;;;491638;240;1054;-54
2021/01/06 07:12:07;;;;;;;;;;;19.60;36.60;;;;;;491676;240;2105;-54
2021/01/06 07:14:08;;;;;;;;;;;19.70;36.70;;;;;;491650;240;1188;-54
2021/01/06 07:16:10;;;;;;;;;;;19.70;36.70;;;;;;491605;240;1326;-54
2021/01/06 07:18:11;;;;;;;;;;;19.70;36.70;;;;;;491655;240;1158;-54
2021/01/06 07:20:12;;;;;;;;;;;19.70;36.60;;;;;;491612;240;1267;-54
2021/01/06 07:22:13;;;;;;;;;;;19.70;36.70;;;;;;491599;240;1296;-54
2021/01/06 07:24:16;;;;;;;;;;;19.60;36.60;;;;;;491863;240;998;-54
2021/01/06 07:26:16;;;;;;;;;;;19.70;36.70;;;;;;491604;242;1516;-54
2021/01/06 07:28:17;;;;;;;;;;;19.70;36.60;;;;;;491645;240;980;-54
2021/01/06 07:30:18;;;;;;;;;;;19.70;36.60;;;;;;491719;240;1176;-54
2021/01/06 07:32:21;;;;;;;;;;;19.70;36.60;;;;;;491701;240;2187;-54
2021/01/06 07:34:21;;;;;;;;;;;19.70;36.60;;;;;;491611;242;2857;-54
2021/01/06 07:36:23;;;;;;;;;;;19.70;36.60;;;;;;491633;240;1041;-54
2021/01/06 07:38:24;;;;;;;;;;;19.70;36.60;;;;;;491598;240;1079;-55
2021/01/06 07:40:25;;;;;;;;;;;19.70;36.60;;;;;;491783;240;1164;-54
2021/01/06 07:42:26;;;;;;;;;;;19.70;36.50;;;;;;491799;240;1060;-54
2021/01/06 07:44:28;;;;;;;;;;;19.70;36.60;;;;;;491809;240;1184;-53
2021/01/06 07:46:29;;;;;;;;;;;19.70;36.60;;;;;;491629;240;1141;-54
2021/01/06 07:48:30;;;;;;;;;;;19.70;36.50;;;;;;491752;240;1173;-54
2021/01/06 07:50:31;;;;;;;;;;;19.70;36.60;;;;;;491642;240;1152;-55
2021/01/06 07:52:33;;;;;;;;;;;19.70;36.60;;;;;;491774;240;2109;-54
2021/01/06 07:54:34;;;;;;;;;;;19.70;36.50;;;;;;491739;240;1228;-54
2021/01/06 07:56:35;;;;;;;;;;;19.70;35.20;;;;;;491618;240;1172;-54
2021/01/06 07:58:40;;;;;;;;;;;19.70;36.50;;;;;;491614;240;1204;-54
2021/01/06 08:00:39;;;;;;;;;;;19.70;36.50;;;;;;491617;241;1847;-54
2021/01/06 08:02:45;;;;;;;;;;;19.70;36.50;;;;;;491569;240;1133;-54
2021/01/06 08:04:41;;;;;;;;;;;19.80;36.60;;;;;;491565;242;2152;-54
2021/01/06 08:06:42;;;;;;;;;;;19.70;36.50;;;;;;491626;240;1042;-54
2021/01/06 08:08:44;;;;;;;;;;;19.70;36.50;;;;;;491698;240;1234;-54
2021/01/06 08:10:45;;;;;;;;;;;19.80;36.50;;;;;;491529;240;2130;-54
2021/01/06 08:12:46;;;;;;;;;;;19.70;36.50;;;;;;491618;240;1407;-54
2021/01/06 08:14:47;;;;;;;;;;;19.80;36.60;;;;;;491822;240;1132;-54
2021/01/06 08:16:49;;;;;;;;;;;19.70;36.50;;;;;;491524;240;1267;-54
2021/01/06 08:18:50;;;;;;;;;;;19.80;36.50;;;;;;491673;240;1217;-54
2021/01/06 08:20:51;;;;;;;;;;;19.80;36.50;;;;;;491485;240;1267;-54
2021/01/06 08:22:53;;;;;;;;;;;19.80;36.50;;;;;;491692;240;1199;-54
2021/01/06 08:24:54;;;;;;;;;;;19.80;36.50;;;;;;491637;240;1061;-54
2021/01/06 08:26:56;;;;;;;;;;;19.80;36.50;;;;;;491501;240;1348;-54
2021/01/06 08:28:57;;;;;;;;;;;19.80;36.50;;;;;;491604;240;975;-54
2021/01/06 08:30:58;;;;;;;;;;;19.80;35.20;;;;;;491655;240;2148;-54
2021/01/06 08:32:59;;;;;;;;;;;19.80;36.50;;;;;;491611;240;1419;-54
2021/01/06 08:35:02;;;;;;;;;;;19.80;36.50;;;;;;491765;240;1023;-54
2021/01/06 08:37:03;;;;;;;;;;;19.80;36.50;;;;;;491613;240;2577;-54
2021/01/06 08:39:04;;;;;;;;;;;19.80;36.40;;;;;;491871;240;1114;-54
2021/01/06 08:41:05;;;;;;;;;;;19.80;36.50;;;;;;491554;240;1146;-54
2021/01/06 08:43:07;;;;;;;;;;;19.80;36.50;;;;;;491694;240;1064;-54
2021/01/06 08:45:08;;;;;;;;;;;19.80;36.50;;;;;;491597;240;1336;-54
2021/01/06 08:47:09;;;;;;;;;;;19.80;36.50;;;;;;491779;240;1156;-54
2021/01/06 08:49:11;;;;;;;;;;;19.80;36.50;;;;;;491796;240;1346;-54
2021/01/06 08:51:12;;;;;;;;;;;19.80;36.40;;;;;;491587;240;2125;-53
2021/01/06 08:53:13;;;;;;;;;;;19.80;36.40;;;;;;491731;240;1076;-54
2021/01/06 08:55:14;;;;;;;;;;;19.80;36.50;;;;;;491591;240;1160;-54
2021/01/06 08:57:16;;;;;;;;;;;19.90;36.50;;;;;;491611;240;1049;-54
2021/01/06 08:59:17;;;;;;;;;;;19.80;36.40;;;;;;491777;240;1295;-54
2021/01/06 09:01:18;;;;;;;;;;;19.80;36.40;;;;;;491634;240;1150;-54
2021/01/06 09:03:19;;;;;;;;;;;19.90;36.50;;;;;;491755;240;1054;-53
2021/01/06 09:05:21;;;;;;;;;;;19.80;35.10;;;;;;491936;240;1233;-54
2021/01/06 09:07:22;;;;;;;;;;;19.90;36.50;;;;;;491631;240;1072;-54
2021/01/06 09:09:23;;;;;;;;;;;19.90;36.50;;;;;;491617;240;1178;-54
2021/01/06 09:11:25;;;;;;;;;;;19.90;36.40;;;;;;491608;240;2156;-54
2021/01/06 09:13:28;;;;;;;;;;;19.80;36.40;;;;;;491818;240;1201;-54
2021/01/06 09:15:27;;;;;;;;;;;19.90;36.50;;;;;;491795;241;1408;-54
2021/01/06 09:17:28;;;;;;;;;;;19.90;36.50;;;;;;491749;240;1173;-54
2021/01/06 09:19:30;;;;;;;;;;;19.90;36.40;;;;;;491706;240;1197;-54
2021/01/06 09:21:31;;;;;;;;;;;19.90;36.40;;;;;;491706;240;1180;-54
2021/01/06 09:23:32;;;;;;;;;;;19.90;36.40;;;;;;491648;240;1188;-54
2021/01/06 09:25:33;;;;;;;;;;;19.90;36.40;;;;;;491819;240;1188;-54
2021/01/06 09:27:35;;;;;;;;;;;19.90;36.40;;;;;;491771;240;1079;-54
2021/01/06 09:29:36;;;;;;;;;;;19.90;36.40;;;;;;491832;240;1039;-54
2021/01/06 09:31:37;;;;;;;;;;;19.90;36.40;;;;;;491640;240;2179;-54
2021/01/06 09:33:39;;;;;;;;;;;19.90;36.40;;;;;;491676;240;1324;-54
2021/01/06 09:35:40;;;;;;;;;;;19.90;36.40;;;;;;491648;240;1026;-54
2021/01/06 09:37:41;;;;;;;;;;;19.90;35.10;;;;;;491732;240;1206;-54
2021/01/06 09:39:42;;;;;;;;;;;19.90;36.30;;;;;;491720;240;1337;-54
2021/01/06 09:41:44;;;;;;;;;;;19.90;36.40;;;;;;491645;240;1272;-54
2021/01/06 09:43:47;;;;;;;;;;;19.90;36.40;;;;;;491636;240;1056;-53
2021/01/06 09:45:47;;;;;;;;;;;19.90;36.40;;;;;;491556;241;1409;-54
2021/01/06 09:47:48;;;;;;;;;;;19.90;36.40;;;;;;491661;240;1294;-54
2021/01/06 09:49:49;;;;;;;;;;;19.90;36.30;;;;;;491789;240;1053;-54
2021/01/06 09:51:50;;;;;;;;;;;19.90;36.40;;;;;;491756;240;2160;-54
2021/01/06 09:53:52;;;;;;;;;;;19.90;36.30;;;;;;491636;240;980;-54
2021/01/06 09:55:53;;;;;;;;;;;19.90;36.40;;;;;;491597;240;1085;-54
2021/01/06 09:57:55;;;;;;;;;;;19.90;36.40;;;;;;491610;240;1045;-54
2021/01/06 09:59:56;;;;;;;;;;;19.90;36.30;;;;;;491649;240;1206;-54
2021/01/06 10:01:57;;;;;;;;;;;19.90;36.30;;;;;;491763;240;1205;-54
2021/01/06 10:03:58;;;;;;;;;;;20.00;36.30;;;;;;491687;240;1083;-54
2021/01/06 10:06:00;;;;;;;;;;;19.90;36.30;;;;;;491707;240;1231;-54
2021/01/06 10:08:01;;;;;;;;;;;19.90;36.30;;;;;;491741;240;1213;-54
2021/01/06 10:10:02;;;;;;;;;;;19.90;36.30;;;;;;491906;240;1384;-54
2021/01/06 10:12:04;;;;;;;;;;;20.00;36.40;;;;;;491623;240;2133;-54
2021/01/06 10:14:05;;;;;;;;;;;20.00;36.30;;;;;;491844;240;1042;-54
2021/01/06 10:16:06;;;;;;;;;;;20.00;36.30;;;;;;491563;240;1397;-53
2021/01/06 10:18:07;;;;;;;;;;;19.90;36.30;;;;;;491713;240;1138;-54
2021/01/06 10:20:09;;;;;;;;;;;20.00;36.30;;;;;;491826;240;989;-54
2021/01/06 10:22:10;;;;;;;;;;;20.00;36.30;;;;;;491553;240;1325;-54
2021/01/06 10:24:11;;;;;;;;;;;20.00;36.30;;;;;;491814;240;1191;-54
2021/01/06 10:26:13;;;;;;;;;;;20.00;36.30;;;;;;491592;240;1058;-54
2021/01/06 10:28:14;;;;;;;;;;;20.00;36.30;;;;;;491678;240;1062;-54
2021/01/06 10:30:15;;;;;;;;;;;20.00;35.00;;;;;;491644;240;1067;-54
2021/01/06 10:32:18;;;;;;;;;;;20.00;36.30;;;;;;491782;240;2152;-54
2021/01/06 10:34:18;;;;;;;;;;;20.00;36.30;;;;;;491654;241;1180;-54
2021/01/06 10:36:19;;;;;;;;;;;20.00;36.30;;;;;;491763;240;1102;-54
2021/01/06 10:38:21;;;;;;;;;;;20.00;36.30;;;;;;491669;240;1177;-54
2021/01/06 10:40:25;;;;;;;;;;;20.00;36.30;;;;;;491677;240;1055;-54
2021/01/06 10:42:23;;;;;;;;;;;20.00;36.30;;;;;;491699;241;1328;-53
2021/01/06 10:44:24;;;;;;;;;;;20.00;36.30;;;;;;491854;240;1100;-54
2021/01/06 10:46:26;;;;;;;;;;;20.00;36.30;;;;;;491620;240;1181;-54
2021/01/06 10:48:27;;;;;;;;;;;20.00;36.30;;;;;;491772;240;1130;-54
2021/01/06 10:50:29;;;;;;;;;;;20.10;36.40;;;;;;491608;240;1098;-54
2021/01/06 10:52:30;;;;;;;;;;;20.10;36.40;;;;;;491757;240;2148;-54
2021/01/06 10:54:32;;;;;;;;;;;20.10;36.20;;;;;;491599;240;1194;-54
2021/01/06 10:56:33;;;;;;;;;;;20.10;36.10;;;;;;491749;240;1208;-54
2021/01/06 10:58:34;;;;;;;;;;;20.10;36.20;;;;;;491641;240;1020;-54
2021/01/06 11:00:35;;;;;;;;;;;20.10;36.20;;;;;;491643;240;1187;-54
2021/01/06 11:02:37;;;;;;;;;;;20.00;36.30;;;;;;491769;240;1169;-54
2021/01/06 11:04:38;;;;;;;;;;;20.00;36.30;;;;;;491806;240;1027;-54
2021/01/06 11:06:39;;;;;;;;;;;19.90;36.30;;;;;;491794;240;1138;-54
2021/01/06 11:08:41;;;;;;;;;;;19.90;36.50;;;;;;491697;240;1173;-54
2021/01/06 11:10:42;;;;;;;;;;;19.90;36.60;;;;;;491567;240;1381;-54
2021/01/06 11:12:46;;;;;;;;;;;19.80;36.60;;;;;;491651;240;2140;-53
2021/01/06 11:14:45;;;;;;;;;;;19.80;36.70;;;;;;491593;242;1554;-54
2021/01/06 11:16:46;;;;;;;;;;;19.70;36.80;;;;;;491746;238;1264;-54
2021/01/06 11:18:47;;;;;;;;;;;19.70;36.90;;;;;;491640;240;1073;-54
2021/01/06 11:20:50;;;;;;;;;;;19.60;36.90;;;;;;491698;240;1079;-54
2021/01/06 11:22:51;;;;;;;;;;;19.60;37.00;;;;;;491583;242;1308;-54
2021/01/06 11:24:51;;;;;;;;;;;19.60;37.10;;;;;;491615;241;1401;-54
2021/01/06 11:26:52;;;;;;;;;;;19.50;37.10;;;;;;491705;240;1049;-54
2021/01/06 11:28:55;;;;;;;;;;;19.50;37.10;;;;;;491639;240;1145;-54
2021/01/06 11:30:55;;;;;;;;;;;19.40;37.20;;;;;;491700;241;1627;-54
2021/01/06 11:32:56;;;;;;;;;;;19.40;37.30;;;;;;491821;240;2136;-54
2021/01/06 11:34:57;;;;;;;;;;;19.40;37.30;;;;;;491905;240;1052;-54
2021/01/06 11:36:59;;;;;;;;;;;19.30;37.30;;;;;;491546;240;1023;-54
2021/01/06 11:39:00;;;;;;;;;;;19.30;37.30;;;;;;491629;240;1148;-54
2021/01/06 11:41:01;;;;;;;;;;;19.30;37.40;;;;;;491642;240;1255;-54
2021/01/06 11:43:03;;;;;;;;;;;19.30;37.50;;;;;;491655;240;1185;-53
2021/01/06 11:45:04;;;;;;;;;;;19.30;37.50;;;;;;491762;240;1213;-54
2021/01/06 11:47:05;;;;;;;;;;;19.20;37.50;;;;;;491630;240;1242;-54
2021/01/06 11:49:06;;;;;;;;;;;19.20;37.50;;;;;;491746;240;1121;-53
2021/01/06 11:51:08;;;;;;;;;;;19.20;37.50;;;;;;491785;240;1256;-54
2021/01/06 11:53:09;;;;;;;;;;;19.20;37.50;;;;;;491791;240;2140;-54
2021/01/06 11:55:10;;;;;;;;;;;19.10;36.20;;;;;;491810;240;1022;-53
2021/01/06 11:57:11;;;;;;;;;;;19.10;37.60;;;;;;491626;240;1051;-54